createdAt,value
2022-12-08T00:00:34.126Z,0.50
2022-12-08T00:04:14.998Z,0.53
2022-12-08T00:08:06.235Z,0.50
2022-12-08T00:11:39.489Z,0.88
2022-12-08T00:15:11.478Z,0.90
2022-12-08T00:18:43.130Z,1.35
2022-12-08T00:22:15.339Z,0.93
2022-12-08T00:25:47.170Z,0.40
2022-12-08T00:29:19.702Z,0.50
2022-12-08T00:32:51.519Z,0.40
2022-12-08T00:36:24.232Z,1.00
2022-12-08T00:39:55.913Z,1.70
2022-12-08T00:43:27.929Z,0.80
2022-12-08T00:46:59.979Z,0.55
2022-12-08T00:50:32.276Z,0.80
2022-12-08T00:54:05.353Z,0.80
2022-12-08T00:57:37.670Z,0.90
2022-12-08T01:01:14.220Z,0.73
2022-12-08T01:04:46.367Z,1.10
2022-12-08T01:08:18.086Z,1.42
2022-12-08T01:11:50.542Z,0.82
2022-12-08T01:15:23.125Z,1.13
2022-12-08T01:18:56.400Z,1.05
2022-12-08T01:22:28.283Z,0.82
2022-12-08T01:26:04.343Z,0.77
2022-12-08T01:29:36.044Z,1.60
2022-12-08T01:33:08.771Z,0.85
2022-12-08T01:36:41.086Z,1.30
2022-12-08T01:40:13.116Z,0.80
2022-12-08T01:44:09.343Z,0.52
2022-12-08T01:47:45.244Z,0.90
2022-12-08T01:51:17.597Z,0.37
2022-12-08T01:54:53.677Z,0.80
2022-12-08T01:58:30.158Z,0.80
2022-12-08T02:02:02.416Z,0.67
2022-12-08T02:05:37.202Z,1.00
2022-12-08T02:09:09.725Z,0.82
2022-12-08T02:12:41.430Z,1.17
2022-12-08T02:16:38.672Z,1.80
2022-12-08T02:20:23.524Z,1.67
2022-12-08T02:24:24.893Z,0.93
2022-12-08T02:28:14.560Z,0.97
2022-12-08T02:32:01.480Z,1.15
2022-12-08T02:35:56.691Z,0.98
2022-12-08T02:39:57.135Z,1.07
2022-12-08T02:43:50.990Z,1.55
2022-12-08T02:47:25.650Z,1.67
2022-12-08T02:50:57.334Z,0.90
2022-12-08T02:54:29.386Z,1.83
2022-12-08T02:58:19.189Z,1.60
2022-12-08T03:02:09.396Z,1.60
2022-12-08T03:05:46.977Z,2.20
2022-12-08T03:09:34.112Z,1.80
2022-12-08T03:13:17.384Z,1.58
2022-12-08T03:16:55.149Z,1.67
2022-12-08T03:20:30.275Z,1.77
2022-12-08T03:24:06.204Z,0.75
2022-12-08T03:27:37.931Z,1.50
2022-12-08T03:31:13.347Z,1.80
2022-12-08T03:34:48.136Z,1.83
2022-12-08T03:38:20.381Z,1.90
2022-12-08T03:41:52.199Z,3.20
2022-12-08T03:45:24.466Z,3.85
2022-12-08T03:48:56.917Z,3.10
2022-12-08T03:52:28.814Z,2.23
2022-12-08T03:56:00.497Z,1.60
2022-12-08T03:59:32.672Z,3.40
2022-12-08T04:03:04.667Z,2.53
2022-12-08T04:06:36.885Z,3.38
2022-12-08T04:10:09.377Z,3.90
2022-12-08T04:13:42.230Z,3.92
2022-12-08T04:17:14.026Z,3.40
2022-12-08T04:20:46.368Z,3.50
2022-12-08T04:24:18.098Z,4.30
2022-12-08T04:27:50.154Z,4.50
2022-12-08T04:31:21.943Z,3.90
2022-12-08T04:34:54.070Z,5.07
2022-12-08T04:38:26.181Z,4.67
2022-12-08T04:41:58.207Z,4.75
2022-12-08T04:45:29.975Z,3.30
2022-12-08T04:49:02.136Z,4.32
2022-12-08T04:52:34.811Z,2.70
2022-12-08T04:56:12.273Z,3.85
2022-12-08T04:59:49.632Z,4.95
2022-12-08T05:03:28.288Z,3.23
2022-12-08T05:07:00.797Z,3.55
2022-12-08T05:10:33.368Z,3.83
2022-12-08T05:14:05.080Z,4.00
2022-12-08T05:17:37.158Z,3.95
2022-12-08T05:21:10.043Z,3.25
2022-12-08T05:24:47.199Z,6.22
2022-12-08T05:28:40.715Z,5.03
2022-12-08T05:32:11.835Z,5.60
2022-12-08T05:35:43.512Z,5.00
2022-12-08T05:39:15.733Z,4.70
2022-12-08T05:42:47.453Z,4.22
2022-12-08T05:46:19.570Z,4.03
2022-12-08T05:49:51.486Z,6.53
2022-12-08T05:53:23.623Z,6.00
2022-12-08T05:56:55.293Z,6.22
2022-12-08T06:00:27.410Z,7.80
2022-12-08T06:04:01.295Z,5.03
2022-12-08T06:07:33.423Z,6.78
2022-12-08T06:11:05.133Z,5.78
2022-12-08T06:14:40.285Z,5.07
2022-12-08T06:18:12.118Z,6.20
2022-12-08T06:21:44.204Z,6.38
2022-12-08T06:25:16.010Z,6.33
2022-12-08T06:28:49.413Z,6.03
2022-12-08T06:32:27.126Z,5.55
2022-12-08T06:35:59.748Z,5.80
2022-12-08T06:39:31.453Z,5.13
2022-12-08T06:43:03.617Z,5.53
2022-12-08T06:46:35.449Z,6.72
2022-12-08T06:50:08.224Z,5.07
2022-12-08T06:53:40.913Z,6.50
2022-12-08T06:57:13.145Z,6.43
2022-12-08T07:00:45.222Z,7.10
2022-12-08T07:04:17.859Z,6.65
2022-12-08T07:07:49.690Z,7.90
2022-12-08T07:11:22.799Z,7.20
2022-12-08T07:14:54.811Z,7.17
2022-12-08T07:18:27.121Z,6.97
2022-12-08T07:21:58.994Z,8.48
2022-12-08T07:25:32.087Z,8.40
2022-12-08T07:29:04.093Z,8.38
2022-12-08T07:32:38.352Z,8.13
2022-12-08T07:36:10.210Z,8.13
2022-12-08T07:39:43.078Z,8.73
2022-12-08T07:43:15.768Z,9.10
2022-12-08T07:46:47.724Z,9.23
2022-12-08T07:50:20.656Z,10.13
2022-12-08T07:53:54.439Z,6.68
2022-12-08T07:57:26.462Z,6.03
2022-12-08T08:00:58.859Z,8.63
2022-12-08T08:04:31.517Z,6.68
2022-12-08T08:08:04.957Z,7.93
2022-12-08T08:11:37.302Z,9.00
2022-12-08T08:15:10.320Z,9.85
2022-12-08T08:18:42.021Z,8.05
2022-12-08T08:22:14.010Z,7.60
2022-12-08T08:25:45.686Z,8.37
2022-12-08T08:29:17.994Z,4.68
2022-12-08T08:32:50.101Z,3.95
2022-12-08T08:36:22.557Z,6.17
2022-12-08T08:39:54.593Z,3.85
2022-12-08T08:43:34.371Z,7.82
2022-12-08T08:47:09.578Z,3.57
2022-12-08T08:50:41.816Z,2.53
2022-12-08T08:54:13.634Z,4.15
2022-12-08T08:57:45.964Z,4.75
2022-12-08T09:01:20.705Z,6.70
2022-12-08T09:04:54.146Z,5.20
2022-12-08T09:08:26.912Z,4.80
2022-12-08T09:11:59.179Z,9.80
2022-12-08T09:15:31.137Z,4.15
2022-12-08T09:19:03.619Z,7.63
2022-12-08T09:22:35.323Z,5.57
2022-12-08T09:26:08.632Z,3.95
2022-12-08T09:29:41.099Z,5.97
2022-12-08T09:33:13.131Z,6.28
2022-12-08T09:36:44.806Z,3.93
2022-12-08T09:40:20.485Z,5.80
2022-12-08T09:43:57.732Z,6.40
2022-12-08T09:47:37.858Z,4.53
2022-12-08T09:51:12.650Z,4.45
2022-12-08T09:54:45.303Z,6.18
2022-12-08T09:58:27.548Z,4.50
2022-12-08T10:02:01.297Z,5.50
2022-12-08T10:05:40.132Z,4.10
2022-12-08T10:09:43.342Z,7.07
2022-12-08T10:13:38.573Z,4.10
2022-12-08T10:17:23.738Z,4.22
2022-12-08T10:21:01.317Z,5.00
2022-12-08T10:24:43.728Z,5.27
2022-12-08T10:28:16.114Z,4.43
2022-12-08T10:31:48.902Z,5.85
2022-12-08T10:35:22.696Z,6.40
2022-12-08T10:38:55.723Z,5.30
2022-12-08T10:42:35.166Z,5.93
2022-12-08T10:46:23.116Z,4.47
2022-12-08T10:50:19.756Z,6.83
2022-12-08T10:53:51.814Z,4.60
2022-12-08T10:57:25.274Z,6.03
2022-12-08T11:01:01.898Z,3.63
2022-12-08T11:04:39.075Z,7.22
2022-12-08T11:08:11.733Z,7.10
2022-12-08T11:11:52.980Z,6.70
2022-12-08T11:15:36.327Z,7.43
2022-12-08T11:19:15.428Z,5.88
2022-12-08T11:22:56.679Z,7.22
2022-12-08T11:26:33.611Z,9.00
2022-12-08T11:30:22.084Z,7.22
2022-12-08T11:33:53.850Z,5.97
2022-12-08T11:37:35.217Z,8.67
2022-12-08T11:41:15.751Z,6.15
2022-12-08T11:44:58.246Z,8.18
2022-12-08T11:48:36.846Z,5.10
2022-12-08T11:52:19.508Z,7.53
2022-12-08T11:55:57.149Z,4.35
2022-12-08T11:59:44.616Z,6.63
2022-12-08T12:03:40.727Z,6.07
2022-12-08T12:07:37.286Z,5.80
2022-12-08T12:11:34.161Z,6.32
2022-12-08T12:15:31.162Z,5.10
2022-12-08T12:19:10.327Z,6.80
2022-12-08T12:22:43.952Z,5.60
2022-12-08T12:26:28.745Z,5.33
2022-12-08T12:30:05.304Z,5.40
2022-12-08T12:33:37.641Z,3.53
2022-12-08T12:37:18.493Z,4.78
2022-12-08T12:40:50.194Z,5.27
2022-12-08T12:44:29.819Z,6.00
2022-12-08T12:48:01.440Z,3.67
2022-12-08T12:51:45.813Z,5.50
2022-12-08T12:55:21.515Z,4.05
2022-12-08T12:58:54.212Z,5.32
2022-12-08T13:02:48.888Z,5.23
2022-12-08T13:06:35.863Z,5.63
2022-12-08T13:10:39.027Z,4.22
2022-12-08T13:14:27.031Z,4.20
2022-12-08T13:17:58.887Z,3.23
2022-12-08T13:21:36.763Z,3.97
2022-12-08T13:25:39.729Z,4.35
2022-12-08T13:29:24.079Z,4.10
2022-12-08T13:36:59.738Z,6.03
2022-12-08T13:40:34.380Z,6.23
2022-12-08T13:48:42.310Z,5.40
2022-12-08T13:53:41.921Z,4.18
2022-12-08T14:00:24.381Z,4.03
2022-12-08T14:04:30.959Z,6.13
2022-12-08T14:07:54.956Z,5.30
2022-12-08T14:11:47.963Z,5.18
2022-12-08T14:15:21.230Z,5.70
2022-12-08T14:18:52.976Z,6.17
2022-12-08T14:22:25.472Z,5.63
2022-12-08T14:25:57.413Z,3.58
2022-12-08T14:29:46.208Z,7.43
2022-12-08T14:33:18.444Z,3.33
2022-12-08T14:36:51.196Z,8.25
2022-12-08T14:40:35.103Z,3.42
2022-12-08T14:44:23.589Z,6.90
2022-12-08T14:47:55.845Z,7.65
2022-12-08T14:51:31.559Z,5.50
2022-12-08T14:55:07.312Z,8.53
2022-12-08T14:58:40.029Z,7.55
2022-12-08T15:02:25.553Z,8.32
2022-12-08T15:06:03.539Z,9.75
2022-12-08T15:09:39.040Z,7.33
2022-12-08T15:13:10.876Z,9.88
2022-12-08T15:16:43.978Z,7.88
2022-12-08T15:20:44.954Z,8.87
2022-12-08T15:24:17.589Z,9.48
2022-12-08T15:27:50.904Z,9.27
2022-12-08T15:31:22.800Z,9.80
2022-12-08T15:34:54.876Z,9.48
2022-12-08T15:38:31.229Z,8.02
2022-12-08T15:42:06.547Z,4.95
2022-12-08T15:45:40.718Z,5.77
2022-12-08T15:49:19.172Z,8.90
2022-12-08T15:52:51.058Z,5.63
2022-12-08T15:56:27.813Z,6.33
2022-12-08T16:00:00.125Z,4.60
2022-12-08T16:07:29.923Z,5.50
2022-12-08T16:19:04.900Z,3.33
2022-12-08T16:22:56.847Z,5.80
2022-12-08T16:27:35.144Z,6.25
2022-12-08T16:30:21.719Z,5.78
2022-12-08T16:33:54.034Z,7.50
2022-12-08T16:37:27.254Z,7.18
2022-12-08T16:41:18.005Z,5.75
2022-12-08T16:44:49.662Z,5.30
2022-12-08T16:48:22.558Z,8.80
2022-12-08T16:51:54.258Z,7.45
2022-12-08T16:55:26.713Z,7.22
2022-12-08T16:58:58.490Z,6.10
2022-12-08T17:02:30.604Z,8.63
2022-12-08T17:06:11.299Z,3.85
2022-12-08T17:09:43.802Z,6.57
2022-12-08T17:13:16.999Z,4.03
2022-12-08T17:16:49.073Z,6.65
2022-12-08T17:20:24.688Z,3.83
2022-12-08T17:23:56.701Z,5.78
2022-12-08T17:27:29.104Z,4.68
2022-12-08T17:31:03.008Z,5.00
2022-12-08T17:34:34.645Z,4.47
2022-12-08T17:38:06.866Z,4.97
2022-12-08T17:41:38.805Z,5.82
2022-12-08T17:45:11.114Z,4.03
2022-12-08T17:48:42.861Z,4.63
2022-12-08T17:52:14.953Z,4.95
2022-12-08T17:55:57.729Z,5.03
2022-12-08T17:59:30.588Z,5.07
2022-12-08T18:03:02.271Z,4.43
2022-12-08T18:06:36.612Z,5.57
2022-12-08T18:10:08.721Z,7.63
2022-12-08T18:13:41.474Z,7.38
2022-12-08T18:17:13.111Z,6.57
2022-12-08T18:20:46.620Z,7.30
2022-12-08T18:24:22.340Z,7.63
2022-12-08T18:27:54.412Z,7.50
2022-12-08T18:31:26.626Z,5.47
2022-12-08T18:34:59.743Z,6.72
2022-12-08T18:38:31.537Z,6.93
2022-12-08T18:42:22.954Z,6.40
2022-12-08T18:46:01.440Z,4.33
2022-12-08T18:49:33.457Z,3.22
2022-12-08T18:53:05.183Z,2.83
2022-12-08T18:56:37.381Z,1.83
2022-12-08T19:00:14.493Z,2.05
2022-12-08T19:04:05.153Z,1.05
2022-12-08T19:07:38.661Z,1.83
2022-12-08T19:11:22.901Z,1.52
2022-12-08T19:14:54.853Z,1.63
2022-12-08T19:18:26.994Z,1.35
2022-12-08T19:21:58.916Z,1.80
2022-12-08T19:25:31.449Z,1.80
2022-12-08T19:29:03.275Z,0.90
2022-12-08T19:32:35.329Z,1.10
2022-12-08T19:36:13.882Z,1.75
2022-12-08T19:40:04.827Z,1.30
2022-12-08T19:43:55.568Z,1.67
2022-12-08T19:47:28.040Z,1.52
2022-12-08T19:51:00.094Z,1.80
2022-12-08T19:54:32.250Z,1.30
2022-12-08T19:58:05.583Z,2.90
2022-12-08T20:01:38.778Z,2.72
2022-12-08T20:05:12.308Z,4.78
2022-12-08T20:08:50.180Z,1.67
2022-12-08T20:12:22.465Z,2.33
2022-12-08T20:15:55.255Z,7.00
2022-12-08T20:19:27.400Z,2.00
2022-12-08T20:23:00.126Z,9.10
2022-12-08T20:26:31.970Z,5.45
2022-12-08T20:30:04.438Z,3.92
2022-12-08T20:33:36.230Z,2.83
2022-12-08T20:37:08.929Z,4.15
2022-12-08T20:40:44.272Z,4.43
2022-12-08T20:44:16.532Z,4.83
2022-12-08T20:47:48.487Z,5.68
2022-12-08T20:51:20.565Z,4.45
2022-12-08T20:54:52.538Z,3.67
2022-12-08T20:58:24.683Z,4.15
2022-12-08T21:01:56.684Z,4.20
2022-12-08T21:05:29.005Z,4.60
2022-12-08T21:09:01.046Z,4.47
2022-12-08T21:12:33.690Z,3.85
2022-12-08T21:16:06.465Z,4.25
2022-12-08T21:19:38.623Z,4.97
2022-12-08T21:23:11.391Z,4.80
2022-12-08T21:26:44.765Z,4.47
2022-12-08T21:30:16.596Z,6.13
2022-12-08T21:33:49.223Z,6.32
2022-12-08T21:37:21.048Z,5.45
2022-12-08T21:40:53.047Z,5.05
2022-12-08T21:44:26.156Z,5.00
2022-12-08T21:48:00.471Z,5.80
2022-12-08T21:51:37.837Z,4.80
2022-12-08T21:55:12.562Z,4.40
2022-12-08T21:58:44.339Z,5.60
2022-12-08T22:02:20.956Z,5.68
2022-12-08T22:05:54.353Z,4.60
2022-12-08T22:09:26.626Z,5.68
2022-12-08T22:12:58.881Z,7.35
2022-12-08T22:16:31.110Z,6.13
2022-12-08T22:20:06.701Z,5.77
2022-12-08T22:23:39.226Z,5.13
2022-12-08T22:27:10.967Z,4.95
2022-12-08T22:30:43.219Z,4.70
2022-12-08T22:34:14.870Z,4.57
2022-12-08T22:37:50.356Z,5.15
2022-12-08T22:41:22.429Z,4.93
2022-12-08T22:44:54.666Z,5.82
2022-12-08T22:48:26.533Z,5.95
2022-12-08T22:52:02.687Z,5.22
2022-12-08T22:55:34.387Z,6.47
2022-12-08T22:59:06.659Z,6.20
2022-12-08T23:02:38.462Z,6.20
2022-12-08T23:06:14.227Z,5.23
2022-12-08T23:09:46.423Z,5.57
2022-12-08T23:13:19.282Z,6.15
2022-12-08T23:16:51.150Z,6.17
2022-12-08T23:20:23.382Z,6.15
2022-12-08T23:23:55.335Z,7.03
2022-12-08T23:27:27.924Z,6.38
2022-12-08T23:30:59.945Z,6.50
2022-12-08T23:34:32.158Z,6.75
2022-12-08T23:38:04.655Z,7.43
2022-12-08T23:41:37.064Z,6.93
2022-12-08T23:45:09.578Z,6.70
2022-12-08T23:48:42.148Z,5.95
2022-12-08T23:52:14.699Z,6.33
2022-12-08T23:55:46.935Z,6.18
2022-12-08T23:59:18.733Z,7.88
